sensor_id;sensor_type;location;lat;lon;timestamp;pressure;altitude;pressure_sealevel;temperature;humidity
18500;BME280;9379;52.134;11.576;2022-11-20T00:00:14;100650.91;;;2.22;84.73
18500;BME280;9379;52.134;11.576;2022-11-20T00:02:50;100649.69;;;1.95;84.87
18500;BME280;9379;52.134;11.576;2022-11-20T00:05:19;100651.47;;;2.12;84.05
18500;BME280;9379;52.134;11.576;2022-11-20T00:07:51;100651.09;;;2.35;83.97
18500;BME280;9379;52.134;11.576;2022-11-20T00:10:19;100647.28;;;2.08;85.79
18500;BME280;9379;52.134;11.576;2022-11-20T00:12:46;100640.06;;;2.13;84.47
18500;BME280;9379;52.134;11.576;2022-11-20T00:15:13;100638.75;;;2.04;85.52
18500;BME280;9379;52.134;11.576;2022-11-20T00:17:40;100629.69;;;2.43;84.03
18500;BME280;9379;52.134;11.576;2022-11-20T00:20:07;100626.50;;;2.69;83.45
18500;BME280;9379;52.134;11.576;2022-11-20T00:22:35;100632.13;;;2.30;84.48
18500;BME280;9379;52.134;11.576;2022-11-20T00:25:01;100631.94;;;2.17;84.31
18500;BME280;9379;52.134;11.576;2022-11-20T00:27:30;100639.19;;;2.45;84.19
18500;BME280;9379;52.134;11.576;2022-11-20T00:29:57;100640.34;;;2.07;84.94
18500;BME280;9379;52.134;11.576;2022-11-20T00:32:23;100649.09;;;1.90;85.31
18500;BME280;9379;52.134;11.576;2022-11-20T00:34:50;100637.81;;;2.38;85.03
18500;BME280;9379;52.134;11.576;2022-11-20T00:37:17;100634.78;;;2.61;84.21
18500;BME280;9379;52.134;11.576;2022-11-20T00:39:44;100614.19;;;2.22;83.90
18500;BME280;9379;52.134;11.576;2022-11-20T00:42:10;100644.72;;;1.56;86.38
18500;BME280;9379;52.134;11.576;2022-11-20T00:44:39;100631.25;;;2.14;86.37
18500;BME280;9379;52.134;11.576;2022-11-20T00:47:05;100635.72;;;1.79;85.20
18500;BME280;9379;52.134;11.576;2022-11-20T00:49:32;100640.63;;;1.33;86.59
18500;BME280;9379;52.134;11.576;2022-11-20T00:51:59;100630.72;;;1.74;86.27
18500;BME280;9379;52.134;11.576;2022-11-20T00:54:26;100621.66;;;1.97;85.73
18500;BME280;9379;52.134;11.576;2022-11-20T00:56:53;100617.88;;;1.85;85.53
18500;BME280;9379;52.134;11.576;2022-11-20T00:59:19;100624.91;;;1.50;85.28
18500;BME280;9379;52.134;11.576;2022-11-20T01:01:48;100606.53;;;2.02;85.33
18500;BME280;9379;52.134;11.576;2022-11-20T01:04:14;100608.63;;;1.62;84.26
18500;BME280;9379;52.134;11.576;2022-11-20T01:06:41;100622.53;;;1.45;85.33
18500;BME280;9379;52.134;11.576;2022-11-20T01:09:11;100625.38;;;1.58;84.93
18500;BME280;9379;52.134;11.576;2022-11-20T01:11:39;100625.00;;;1.49;85.21
18500;BME280;9379;52.134;11.576;2022-11-20T01:14:09;100600.63;;;1.81;84.84
18500;BME280;9379;52.134;11.576;2022-11-20T01:16:39;100611.44;;;1.75;84.64
18500;BME280;9379;52.134;11.576;2022-11-20T01:19:11;100612.53;;;1.54;85.56
18500;BME280;9379;52.134;11.576;2022-11-20T01:21:40;100609.59;;;1.77;84.71
18500;BME280;9379;52.134;11.576;2022-11-20T01:24:10;100606.72;;;1.99;85.24
18500;BME280;9379;52.134;11.576;2022-11-20T01:26:39;100604.16;;;1.97;84.50
18500;BME280;9379;52.134;11.576;2022-11-20T01:29:08;100605.03;;;1.81;85.24
18500;BME280;9379;52.134;11.576;2022-11-20T01:31:36;100609.41;;;1.97;85.29
18500;BME280;9379;52.134;11.576;2022-11-20T01:34:05;100603.44;;;2.27;85.01
18500;BME280;9379;52.134;11.576;2022-11-20T01:36:35;100597.97;;;2.47;84.13
18500;BME280;9379;52.134;11.576;2022-11-20T01:39:04;100567.63;;;2.43;83.56
18500;BME280;9379;52.134;11.576;2022-11-20T01:41:32;100585.34;;;2.54;82.15
18500;BME280;9379;52.134;11.576;2022-11-20T01:44:18;100591.59;;;2.20;83.49
18500;BME280;9379;52.134;11.576;2022-11-20T01:46:52;100591.72;;;2.34;84.17
18500;BME280;9379;52.134;11.576;2022-11-20T01:49:24;100586.50;;;2.01;84.41
18500;BME280;9379;52.134;11.576;2022-11-20T01:51:56;100588.16;;;2.35;84.46
18500;BME280;9379;52.134;11.576;2022-11-20T01:54:29;100582.13;;;2.17;84.46
18500;BME280;9379;52.134;11.576;2022-11-20T01:56:59;100584.63;;;1.70;86.22
18500;BME280;9379;52.134;11.576;2022-11-20T01:59:28;100570.97;;;2.14;85.26
18500;BME280;9379;52.134;11.576;2022-11-20T02:01:56;100573.75;;;2.26;85.44
18500;BME280;9379;52.134;11.576;2022-11-20T02:04:24;100576.03;;;2.17;85.65
18500;BME280;9379;52.134;11.576;2022-11-20T02:06:57;100550.94;;;1.80;85.48
18500;BME280;9379;52.134;11.576;2022-11-20T02:09:25;100565.72;;;2.29;85.11
18500;BME280;9379;52.134;11.576;2022-11-20T02:11:52;100544.66;;;2.31;85.19
18500;BME280;9379;52.134;11.576;2022-11-20T02:14:21;100569.75;;;2.19;83.39
18500;BME280;9379;52.134;11.576;2022-11-20T02:16:48;100566.50;;;2.63;83.67
18500;BME280;9379;52.134;11.576;2022-11-20T02:19:22;100569.16;;;2.93;82.27
18500;BME280;9379;52.134;11.576;2022-11-20T02:21:58;100560.22;;;2.66;83.29
18500;BME280;9379;52.134;11.576;2022-11-20T02:24:28;100558.66;;;3.23;81.86
18500;BME280;9379;52.134;11.576;2022-11-20T02:26:59;100561.25;;;3.09;82.68
18500;BME280;9379;52.134;11.576;2022-11-20T02:29:30;100559.09;;;3.01;82.35
18500;BME280;9379;52.134;11.576;2022-11-20T02:32:00;100553.56;;;3.36;81.46
18500;BME280;9379;52.134;11.576;2022-11-20T02:34:28;100561.88;;;3.72;80.42
18500;BME280;9379;52.134;11.576;2022-11-20T02:36:56;100557.41;;;3.44;80.92
18500;BME280;9379;52.134;11.576;2022-11-20T02:39:24;100557.09;;;3.35;82.64
18500;BME280;9379;52.134;11.576;2022-11-20T02:41:54;100540.47;;;3.20;83.00
18500;BME280;9379;52.134;11.576;2022-11-20T02:44:22;100545.97;;;3.01;82.33
18500;BME280;9379;52.134;11.576;2022-11-20T02:46:49;100557.13;;;3.05;82.99
18500;BME280;9379;52.134;11.576;2022-11-20T02:49:15;100531.59;;;2.77;83.83
18500;BME280;9379;52.134;11.576;2022-11-20T02:51:43;100549.22;;;3.35;82.89
18500;BME280;9379;52.134;11.576;2022-11-20T02:54:09;100542.13;;;3.37;83.95
18500;BME280;9379;52.134;11.576;2022-11-20T02:56:37;100546.31;;;2.95;83.55
18500;BME280;9379;52.134;11.576;2022-11-20T02:59:06;100542.97;;;3.07;83.59
18500;BME280;9379;52.134;11.576;2022-11-20T03:01:33;100549.31;;;2.42;85.48
18500;BME280;9379;52.134;11.576;2022-11-20T03:04:00;100539.75;;;2.41;85.68
18500;BME280;9379;52.134;11.576;2022-11-20T03:06:27;100534.09;;;2.32;85.07
18500;BME280;9379;52.134;11.576;2022-11-20T03:08:54;100536.59;;;2.81;84.48
18500;BME280;9379;52.134;11.576;2022-11-20T03:11:21;100531.91;;;3.02;84.50
18500;BME280;9379;52.134;11.576;2022-11-20T03:13:48;100528.84;;;2.48;85.36
18500;BME280;9379;52.134;11.576;2022-11-20T03:16:18;100532.91;;;2.70;85.53
18500;BME280;9379;52.134;11.576;2022-11-20T03:18:46;100539.69;;;2.58;85.16
18500;BME280;9379;52.134;11.576;2022-11-20T03:21:14;100534.50;;;2.41;85.87
18500;BME280;9379;52.134;11.576;2022-11-20T03:23:42;100515.31;;;2.09;86.38
18500;BME280;9379;52.134;11.576;2022-11-20T03:26:10;100510.41;;;1.87;86.80
18500;BME280;9379;52.134;11.576;2022-11-20T03:28:38;100535.44;;;2.24;87.04
18500;BME280;9379;52.134;11.576;2022-11-20T03:31:09;100511.16;;;2.04;87.17
18500;BME280;9379;52.134;11.576;2022-11-20T03:33:38;100514.03;;;2.00;86.65
18500;BME280;9379;52.134;11.576;2022-11-20T03:36:07;100530.41;;;1.55;88.42
18500;BME280;9379;52.134;11.576;2022-11-20T03:38:34;100536.41;;;1.57;88.72
18500;BME280;9379;52.134;11.576;2022-11-20T03:41:03;100516.78;;;1.48;88.52
18500;BME280;9379;52.134;11.576;2022-11-20T03:43:31;100536.16;;;1.11;88.74
18500;BME280;9379;52.134;11.576;2022-11-20T03:45:58;100538.44;;;0.82;89.39
18500;BME280;9379;52.134;11.576;2022-11-20T03:48:25;100518.66;;;0.77;88.54
18500;BME280;9379;52.134;11.576;2022-11-20T03:51:08;100542.16;;;1.13;87.69
18500;BME280;9379;52.134;11.576;2022-11-20T03:53:35;100529.69;;;1.01;86.79
18500;BME280;9379;52.134;11.576;2022-11-20T03:56:03;100538.41;;;1.19;87.58
18500;BME280;9379;52.134;11.576;2022-11-20T03:58:30;100517.84;;;0.94;88.00
18500;BME280;9379;52.134;11.576;2022-11-20T04:01:03;100500.44;;;1.10;87.27
18500;BME280;9379;52.134;11.576;2022-11-20T04:03:30;100522.75;;;1.34;87.13
18500;BME280;9379;52.134;11.576;2022-11-20T04:06:01;100516.06;;;1.62;86.20
18500;BME280;9379;52.134;11.576;2022-11-20T04:08:29;100485.16;;;1.35;85.89
18500;BME280;9379;52.134;11.576;2022-11-20T04:10:56;100511.38;;;1.18;86.76
18500;BME280;9379;52.134;11.576;2022-11-20T04:13:23;100524.06;;;1.08;87.06
18500;BME280;9379;52.134;11.576;2022-11-20T04:15:50;100507.19;;;1.14;87.22
18500;BME280;9379;52.134;11.576;2022-11-20T04:18:17;100509.13;;;1.94;84.85
18500;BME280;9379;52.134;11.576;2022-11-20T04:20:44;100511.69;;;2.27;82.85
18500;BME280;9379;52.134;11.576;2022-11-20T04:23:10;100517.59;;;1.33;85.45
18500;BME280;9379;52.134;11.576;2022-11-20T04:25:39;100511.97;;;1.40;86.37
18500;BME280;9379;52.134;11.576;2022-11-20T04:28:05;100487.31;;;1.27;85.66
18500;BME280;9379;52.134;11.576;2022-11-20T04:30:32;100499.50;;;1.61;85.91
18500;BME280;9379;52.134;11.576;2022-11-20T04:32:59;100497.88;;;1.92;86.20
18500;BME280;9379;52.134;11.576;2022-11-20T04:35:25;100502.88;;;2.12;84.25
18500;BME280;9379;52.134;11.576;2022-11-20T04:37:52;100495.69;;;2.31;82.53
18500;BME280;9379;52.134;11.576;2022-11-20T04:40:19;100503.56;;;2.16;83.60
18500;BME280;9379;52.134;11.576;2022-11-20T04:42:47;100493.97;;;1.83;83.90
18500;BME280;9379;52.134;11.576;2022-11-20T04:45:14;100499.16;;;2.00;83.16
18500;BME280;9379;52.134;11.576;2022-11-20T04:47:41;100477.56;;;1.64;84.10
18500;BME280;9379;52.134;11.576;2022-11-20T04:50:08;100503.22;;;2.22;84.20
18500;BME280;9379;52.134;11.576;2022-11-20T04:52:35;100503.94;;;1.77;84.16
18500;BME280;9379;52.134;11.576;2022-11-20T04:55:03;100468.69;;;1.66;84.45
18500;BME280;9379;52.134;11.576;2022-11-20T04:57:30;100474.56;;;2.03;83.56
18500;BME280;9379;52.134;11.576;2022-11-20T04:59:58;100498.97;;;1.88;84.17
18500;BME280;9379;52.134;11.576;2022-11-20T05:02:25;100481.81;;;1.49;84.84
18500;BME280;9379;52.134;11.576;2022-11-20T05:04:51;100471.50;;;1.79;82.91
18500;BME280;9379;52.134;11.576;2022-11-20T05:07:18;100490.78;;;1.94;82.39
18500;BME280;9379;52.134;11.576;2022-11-20T05:09:45;100493.94;;;1.67;84.05
18500;BME280;9379;52.134;11.576;2022-11-20T05:12:11;100491.13;;;1.55;83.93
18500;BME280;9379;52.134;11.576;2022-11-20T05:14:38;100460.31;;;1.60;84.79
18500;BME280;9379;52.134;11.576;2022-11-20T05:17:09;100487.66;;;2.19;83.53
18500;BME280;9379;52.134;11.576;2022-11-20T05:19:36;100482.75;;;2.28;81.83
18500;BME280;9379;52.134;11.576;2022-11-20T05:22:04;100487.13;;;1.96;82.90
18500;BME280;9379;52.134;11.576;2022-11-20T05:24:31;100486.63;;;1.74;83.42
18500;BME280;9379;52.134;11.576;2022-11-20T05:26:57;100460.28;;;1.44;82.67
18500;BME280;9379;52.134;11.576;2022-11-20T05:29:24;100488.19;;;2.10;82.14
18500;BME280;9379;52.134;11.576;2022-11-20T05:31:51;100489.34;;;2.36;80.87
18500;BME280;9379;52.134;11.576;2022-11-20T05:34:19;100474.19;;;2.56;79.18
18500;BME280;9379;52.134;11.576;2022-11-20T05:36:46;100466.56;;;2.52;79.55
18500;BME280;9379;52.134;11.576;2022-11-20T05:39:13;100474.28;;;2.55;79.46
18500;BME280;9379;52.134;11.576;2022-11-20T05:41:39;100468.84;;;2.42;80.92
18500;BME280;9379;52.134;11.576;2022-11-20T05:44:06;100476.72;;;1.63;83.28
18500;BME280;9379;52.134;11.576;2022-11-20T05:46:33;100463.53;;;1.96;82.39
18500;BME280;9379;52.134;11.576;2022-11-20T05:49:00;100473.78;;;2.32;81.54
18500;BME280;9379;52.134;11.576;2022-11-20T05:51:28;100454.75;;;1.33;82.04
18500;BME280;9379;52.134;11.576;2022-11-20T05:53:56;100467.63;;;1.03;84.03
18500;BME280;9379;52.134;11.576;2022-11-20T05:56:23;100472.59;;;1.42;84.72
18500;BME280;9379;52.134;11.576;2022-11-20T05:58:50;100468.47;;;1.03;84.23
18500;BME280;9379;52.134;11.576;2022-11-20T06:01:18;100462.50;;;1.19;84.36
18500;BME280;9379;52.134;11.576;2022-11-20T06:03:45;100462.25;;;1.56;83.13
18500;BME280;9379;52.134;11.576;2022-11-20T06:06:13;100463.06;;;1.74;82.35
18500;BME280;9379;52.134;11.576;2022-11-20T06:08:42;100446.72;;;1.69;82.02
18500;BME280;9379;52.134;11.576;2022-11-20T06:11:10;100461.88;;;1.46;83.30
18500;BME280;9379;52.134;11.576;2022-11-20T06:13:40;100462.50;;;1.67;83.78
18500;BME280;9379;52.134;11.576;2022-11-20T06:16:08;100458.88;;;0.86;83.39
18500;BME280;9379;52.134;11.576;2022-11-20T06:18:35;100471.06;;;1.05;83.93
18500;BME280;9379;52.134;11.576;2022-11-20T06:21:04;100447.25;;;1.09;84.45
18500;BME280;9379;52.134;11.576;2022-11-20T06:23:32;100461.78;;;0.80;85.07
18500;BME280;9379;52.134;11.576;2022-11-20T06:26:02;100450.25;;;0.67;86.66
18500;BME280;9379;52.134;11.576;2022-11-20T06:28:43;100478.06;;;0.70;86.54
18500;BME280;9379;52.134;11.576;2022-11-20T06:31:11;100473.78;;;0.50;86.94
18500;BME280;9379;52.134;11.576;2022-11-20T06:33:38;100467.03;;;0.80;86.73
18500;BME280;9379;52.134;11.576;2022-11-20T06:36:06;100472.13;;;0.83;85.62
18500;BME280;9379;52.134;11.576;2022-11-20T06:38:33;100465.88;;;0.86;85.96
18500;BME280;9379;52.134;11.576;2022-11-20T06:41:01;100472.19;;;0.65;86.13
18500;BME280;9379;52.134;11.576;2022-11-20T06:43:29;100474.47;;;0.17;88.01
18500;BME280;9379;52.134;11.576;2022-11-20T06:45:57;100472.94;;;0.67;88.34
18500;BME280;9379;52.134;11.576;2022-11-20T06:48:26;100469.50;;;0.83;86.13
18500;BME280;9379;52.134;11.576;2022-11-20T06:50:53;100465.75;;;0.72;85.34
18500;BME280;9379;52.134;11.576;2022-11-20T06:53:21;100448.94;;;1.10;85.13
18500;BME280;9379;52.134;11.576;2022-11-20T06:55:48;100465.41;;;1.12;84.01
18500;BME280;9379;52.134;11.576;2022-11-20T06:58:17;100440.03;;;0.09;85.45
18500;BME280;9379;52.134;11.576;2022-11-20T07:00:44;100468.06;;;0.42;85.59
18500;BME280;9379;52.134;11.576;2022-11-20T07:03:11;100464.53;;;0.43;85.49
18500;BME280;9379;52.134;11.576;2022-11-20T07:05:38;100463.88;;;1.08;85.31
18500;BME280;9379;52.134;11.576;2022-11-20T07:08:06;100463.50;;;0.64;84.75
18500;BME280;9379;52.134;11.576;2022-11-20T07:10:33;100465.03;;;0.51;85.66
18500;BME280;9379;52.134;11.576;2022-11-20T07:13:00;100459.75;;;0.70;85.83
18500;BME280;9379;52.134;11.576;2022-11-20T07:15:28;100446.00;;;0.11;87.33
18500;BME280;9379;52.134;11.576;2022-11-20T07:17:55;100431.72;;;-0.18;87.66
18500;BME280;9379;52.134;11.576;2022-11-20T07:20:24;100445.72;;;0.36;87.13
18500;BME280;9379;52.134;11.576;2022-11-20T07:22:53;100448.94;;;1.10;85.05
18500;BME280;9379;52.134;11.576;2022-11-20T07:25:21;100442.19;;;1.39;82.72
18500;BME280;9379;52.134;11.576;2022-11-20T07:27:48;100446.34;;;0.58;84.38
18500;BME280;9379;52.134;11.576;2022-11-20T07:30:15;100439.41;;;0.04;86.63
18500;BME280;9379;52.134;11.576;2022-11-20T07:32:46;100442.69;;;0.44;86.21
18500;BME280;9379;52.134;11.576;2022-11-20T07:35:13;100453.03;;;1.16;84.54
18500;BME280;9379;52.134;11.576;2022-11-20T07:37:40;100452.94;;;1.51;81.12
18500;BME280;9379;52.134;11.576;2022-11-20T07:40:07;100488.31;;;1.42;83.16
18500;BME280;9379;52.134;11.576;2022-11-20T07:42:34;100466.19;;;0.97;85.25
18500;BME280;9379;52.134;11.576;2022-11-20T07:45:01;100463.56;;;1.14;85.69
18500;BME280;9379;52.134;11.576;2022-11-20T07:47:28;100454.25;;;1.75;82.71
18500;BME280;9379;52.134;11.576;2022-11-20T07:49:56;100465.41;;;1.94;82.79
18500;BME280;9379;52.134;11.576;2022-11-20T07:52:23;100464.19;;;0.68;85.31
18500;BME280;9379;52.134;11.576;2022-11-20T07:54:49;100449.03;;;0.74;86.50
18500;BME280;9379;52.134;11.576;2022-11-20T07:57:16;100461.81;;;0.98;86.01
18500;BME280;9379;52.134;11.576;2022-11-20T07:59:43;100454.72;;;1.17;85.64
18500;BME280;9379;52.134;11.576;2022-11-20T08:02:11;100451.09;;;1.02;84.92
18500;BME280;9379;52.134;11.576;2022-11-20T08:04:38;100433.88;;;0.98;85.86
18500;BME280;9379;52.134;11.576;2022-11-20T08:07:06;100448.59;;;0.83;86.68
18500;BME280;9379;52.134;11.576;2022-11-20T08:09:32;100442.25;;;1.05;86.16
18500;BME280;9379;52.134;11.576;2022-11-20T08:11:59;100450.34;;;1.17;85.83
18500;BME280;9379;52.134;11.576;2022-11-20T08:14:43;100444.31;;;1.49;84.38
18500;BME280;9379;52.134;11.576;2022-11-20T08:17:10;100450.38;;;1.49;84.09
18500;BME280;9379;52.134;11.576;2022-11-20T08:19:37;100422.31;;;1.02;84.84
18500;BME280;9379;52.134;11.576;2022-11-20T08:22:05;100448.31;;;1.23;84.90
18500;BME280;9379;52.134;11.576;2022-11-20T08:24:32;100425.75;;;1.20;84.76
18500;BME280;9379;52.134;11.576;2022-11-20T08:29:47;100417.72;;;1.40;84.43
18500;BME280;9379;52.134;11.576;2022-11-20T08:32:14;100413.31;;;1.57;84.25
18500;BME280;9379;52.134;11.576;2022-11-20T08:34:41;100422.91;;;1.89;83.81
18500;BME280;9379;52.134;11.576;2022-11-20T08:37:10;100403.19;;;1.51;84.14
18500;BME280;9379;52.134;11.576;2022-11-20T08:39:37;100408.69;;;1.78;84.16
18500;BME280;9379;52.134;11.576;2022-11-20T08:42:06;100426.69;;;1.68;85.17
18500;BME280;9379;52.134;11.576;2022-11-20T08:44:34;100418.41;;;1.91;84.07
18500;BME280;9379;52.134;11.576;2022-11-20T08:47:01;100435.41;;;2.16;84.98
18500;BME280;9379;52.134;11.576;2022-11-20T08:49:28;100416.88;;;2.19;84.83
18500;BME280;9379;52.134;11.576;2022-11-20T08:51:56;100417.56;;;1.91;85.06
18500;BME280;9379;52.134;11.576;2022-11-20T08:54:25;100443.25;;;1.84;85.05
18500;BME280;9379;52.134;11.576;2022-11-20T08:56:53;100399.50;;;1.86;84.58
18500;BME280;9379;52.134;11.576;2022-11-20T08:59:20;100427.34;;;2.19;83.47
18500;BME280;9379;52.134;11.576;2022-11-20T09:01:48;100425.56;;;2.19;82.62
18500;BME280;9379;52.134;11.576;2022-11-20T09:04:15;100418.06;;;2.13;82.69
18500;BME280;9379;52.134;11.576;2022-11-20T09:06:42;100440.84;;;2.58;81.83
18500;BME280;9379;52.134;11.576;2022-11-20T09:09:09;100403.25;;;1.96;82.60
18500;BME280;9379;52.134;11.576;2022-11-20T09:11:38;100404.59;;;2.35;83.36
18500;BME280;9379;52.134;11.576;2022-11-20T09:14:08;100430.81;;;2.19;82.92
18500;BME280;9379;52.134;11.576;2022-11-20T09:16:36;100416.41;;;2.42;83.07
18500;BME280;9379;52.134;11.576;2022-11-20T09:19:06;100424.91;;;2.91;82.80
18500;BME280;9379;52.134;11.576;2022-11-20T09:21:33;100421.69;;;2.86;82.11
18500;BME280;9379;52.134;11.576;2022-11-20T09:24:00;100424.34;;;3.01;82.42
18500;BME280;9379;52.134;11.576;2022-11-20T09:26:27;100382.72;;;3.09;81.47
18500;BME280;9379;52.134;11.576;2022-11-20T09:28:56;100415.75;;;3.27;81.91
18500;BME280;9379;52.134;11.576;2022-11-20T09:31:29;100430.91;;;2.33;83.29
18500;BME280;9379;52.134;11.576;2022-11-20T09:37:18;100407.41;;;2.16;85.49
18500;BME280;9379;52.134;11.576;2022-11-20T09:39:45;100410.88;;;2.32;85.35
18500;BME280;9379;52.134;11.576;2022-11-20T09:42:29;100418.22;;;2.26;84.72
18500;BME280;9379;52.134;11.576;2022-11-20T09:48:32;100375.00;;;2.33;84.87
18500;BME280;9379;52.134;11.576;2022-11-20T09:51:05;100411.81;;;2.76;84.99
18500;BME280;9379;52.134;11.576;2022-11-20T09:53:44;100394.06;;;2.65;84.97
18500;BME280;9379;52.134;11.576;2022-11-20T09:56:14;100402.69;;;2.97;84.99
18500;BME280;9379;52.134;11.576;2022-11-20T09:58:43;100407.28;;;3.08;83.39
18500;BME280;9379;52.134;11.576;2022-11-20T10:01:14;100399.75;;;2.87;83.69
18500;BME280;9379;52.134;11.576;2022-11-20T10:03:54;100396.97;;;2.60;84.46
18500;BME280;9379;52.134;11.576;2022-11-20T10:09:51;100406.22;;;2.82;84.85
18500;BME280;9379;52.134;11.576;2022-11-20T10:12:23;100394.84;;;3.26;84.11
18500;BME280;9379;52.134;11.576;2022-11-20T10:15:03;100403.72;;;3.23;84.04
18500;BME280;9379;52.134;11.576;2022-11-20T10:17:49;100394.13;;;2.79;85.63
18500;BME280;9379;52.134;11.576;2022-11-20T10:20:27;100403.22;;;2.88;84.21
18500;BME280;9379;52.134;11.576;2022-11-20T10:23:09;100396.13;;;3.04;84.67
18500;BME280;9379;52.134;11.576;2022-11-20T10:25:43;100387.41;;;3.04;85.42
18500;BME280;9379;52.134;11.576;2022-11-20T10:28:22;100392.38;;;3.08;84.30
18500;BME280;9379;52.134;11.576;2022-11-20T10:30:59;100393.59;;;3.17;83.37
18500;BME280;9379;52.134;11.576;2022-11-20T10:33:28;100370.88;;;3.44;82.48
18500;BME280;9379;52.134;11.576;2022-11-20T10:36:06;100386.56;;;3.32;82.67
18500;BME280;9379;52.134;11.576;2022-11-20T10:38:40;100384.22;;;3.27;82.88
18500;BME280;9379;52.134;11.576;2022-11-20T10:41:15;100371.66;;;3.04;82.80
18500;BME280;9379;52.134;11.576;2022-11-20T10:44:02;100367.16;;;3.48;82.93
18500;BME280;9379;52.134;11.576;2022-11-20T10:46:36;100370.84;;;3.59;82.16
18500;BME280;9379;52.134;11.576;2022-11-20T10:49:12;100367.75;;;3.66;82.01
18500;BME280;9379;52.134;11.576;2022-11-20T10:51:50;100374.75;;;3.94;81.00
18500;BME280;9379;52.134;11.576;2022-11-20T10:54:26;100362.81;;;3.89;81.99
18500;BME280;9379;52.134;11.576;2022-11-20T10:57:04;100364.75;;;3.99;79.83
18500;BME280;9379;52.134;11.576;2022-11-20T11:00:00;100366.59;;;3.85;80.55
18500;BME280;9379;52.134;11.576;2022-11-20T11:02:34;100360.41;;;3.86;79.73
18500;BME280;9379;52.134;11.576;2022-11-20T11:05:10;100357.09;;;3.55;80.61
18500;BME280;9379;52.134;11.576;2022-11-20T11:07:41;100335.81;;;3.31;81.63
18500;BME280;9379;52.134;11.576;2022-11-20T11:12:43;100342.97;;;4.24;80.18
18500;BME280;9379;52.134;11.576;2022-11-20T11:15:15;100303.63;;;3.83;79.24
18500;BME280;9379;52.134;11.576;2022-11-20T11:17:51;100313.94;;;3.59;79.14
18500;BME280;9379;52.134;11.576;2022-11-20T11:20:20;100351.66;;;4.12;77.45
18500;BME280;9379;52.134;11.576;2022-11-20T11:22:51;100350.59;;;4.42;76.62
18500;BME280;9379;52.134;11.576;2022-11-20T11:25:29;100346.00;;;4.83;77.19
18500;BME280;9379;52.134;11.576;2022-11-20T11:28:17;100342.72;;;4.92;77.12
18500;BME280;9379;52.134;11.576;2022-11-20T11:30:46;100337.03;;;5.11;75.71
18500;BME280;9379;52.134;11.576;2022-11-20T11:33:19;100320.81;;;4.54;76.59
18500;BME280;9379;52.134;11.576;2022-11-20T11:35:51;100342.72;;;4.92;75.72
18500;BME280;9379;52.134;11.576;2022-11-20T11:38:29;100323.13;;;4.46;74.85
18500;BME280;9379;52.134;11.576;2022-11-20T11:40:57;100351.81;;;4.23;75.95
18500;BME280;9379;52.134;11.576;2022-11-20T11:43:39;100333.59;;;4.20;75.11
18500;BME280;9379;52.134;11.576;2022-11-20T11:46:29;100356.81;;;4.53;74.49
18500;BME280;9379;52.134;11.576;2022-11-20T11:48:59;100330.53;;;4.66;73.80
18500;BME280;9379;52.134;11.576;2022-11-20T11:51:32;100350.13;;;4.75;74.60
18500;BME280;9379;52.134;11.576;2022-11-20T11:54:06;100338.81;;;4.07;76.62
18500;BME280;9379;52.134;11.576;2022-11-20T11:56:37;100344.25;;;4.04;77.17
18500;BME280;9379;52.134;11.576;2022-11-20T11:59:06;100338.28;;;4.55;76.63
18500;BME280;9379;52.134;11.576;2022-11-20T12:01:42;100334.72;;;4.81;74.74
18500;BME280;9379;52.134;11.576;2022-11-20T12:04:17;100350.13;;;5.00;74.87
18500;BME280;9379;52.134;11.576;2022-11-20T12:06:51;100344.53;;;4.92;74.99
18500;BME280;9379;52.134;11.576;2022-11-20T12:09:24;100353.78;;;4.85;76.40
18500;BME280;9379;52.134;11.576;2022-11-20T12:12:04;100350.06;;;4.49;76.73
18500;BME280;9379;52.134;11.576;2022-11-20T12:14:34;100355.53;;;4.46;77.55
18500;BME280;9379;52.134;11.576;2022-11-20T12:17:03;100355.78;;;4.56;77.94
18500;BME280;9379;52.134;11.576;2022-11-20T12:19:31;100345.47;;;4.91;77.22
18500;BME280;9379;52.134;11.576;2022-11-20T12:22:04;100331.16;;;4.82;77.32
18500;BME280;9379;52.134;11.576;2022-11-20T12:24:49;100334.72;;;4.81;78.40
18500;BME280;9379;52.134;11.576;2022-11-20T12:30:15;100309.34;;;5.06;78.07
18500;BME280;9379;52.134;11.576;2022-11-20T12:35:52;100324.19;;;4.43;79.37
18500;BME280;9379;52.134;11.576;2022-11-20T12:38:42;100325.38;;;4.64;79.48
18500;BME280;9379;52.134;11.576;2022-11-20T12:41:21;100286.56;;;5.05;78.64
18500;BME280;9379;52.134;11.576;2022-11-20T12:44:18;100321.91;;;4.77;79.03
18500;BME280;9379;52.134;11.576;2022-11-20T12:47:14;100316.84;;;4.99;80.25
18500;BME280;9379;52.134;11.576;2022-11-20T12:49:48;100324.41;;;5.04;79.53
18500;BME280;9379;52.134;11.576;2022-11-20T12:52:30;100319.88;;;4.93;80.52
18500;BME280;9379;52.134;11.576;2022-11-20T12:55:16;100315.03;;;5.49;78.97
18500;BME280;9379;52.134;11.576;2022-11-20T12:57:54;100315.94;;;5.24;78.25
18500;BME280;9379;52.134;11.576;2022-11-20T13:00:23;100307.78;;;4.90;79.11
18500;BME280;9379;52.134;11.576;2022-11-20T13:03:06;100310.19;;;5.43;79.39
18500;BME280;9379;52.134;11.576;2022-11-20T13:05:46;100296.47;;;5.14;78.79
18500;BME280;9379;52.134;11.576;2022-11-20T13:08:20;100296.44;;;5.26;77.98
18500;BME280;9379;52.134;11.576;2022-11-20T13:10:54;100292.97;;;5.26;77.97
18500;BME280;9379;52.134;11.576;2022-11-20T13:13:32;100292.94;;;4.77;80.87
18500;BME280;9379;52.134;11.576;2022-11-20T13:16:05;100287.88;;;4.99;78.92
18500;BME280;9379;52.134;11.576;2022-11-20T13:18:38;100272.63;;;4.66;79.53
18500;BME280;9379;52.134;11.576;2022-11-20T13:21:15;100292.09;;;4.89;78.94
18500;BME280;9379;52.134;11.576;2022-11-20T13:23:42;100292.47;;;5.21;79.10
18500;BME280;9379;52.134;11.576;2022-11-20T13:26:19;100303.69;;;4.86;78.82
18500;BME280;9379;52.134;11.576;2022-11-20T13:28:59;100304.91;;;4.93;78.74
18500;BME280;9379;52.134;11.576;2022-11-20T13:31:32;100286.91;;;5.00;78.45
18500;BME280;9379;52.134;11.576;2022-11-20T13:34:02;100293.44;;;4.69;78.85
18500;BME280;9379;52.134;11.576;2022-11-20T13:36:31;100286.84;;;4.76;80.46